createdAt,value
2018-12-24T00:00:19.146Z,1.30
2018-12-24T00:01:19.132Z,1.20
2018-12-24T00:02:19.160Z,1.10
2018-12-24T00:03:19.128Z,0.90
2018-12-24T00:04:19.122Z,1.10
2018-12-24T00:05:19.116Z,1.10
2018-12-24T00:06:19.113Z,1.00
2018-12-24T00:07:19.131Z,0.90
2018-12-24T00:08:19.105Z,0.90
2018-12-24T00:09:19.097Z,1.10
2018-12-24T00:10:19.092Z,1.10
2018-12-24T00:11:19.091Z,0.90
2018-12-24T00:12:19.109Z,1.10
2018-12-24T00:13:19.077Z,1.00
2018-12-24T00:14:19.072Z,0.90
2018-12-24T00:15:19.067Z,1.10
2018-12-24T00:16:19.060Z,0.90
2018-12-24T00:17:19.082Z,1.10
2018-12-24T00:18:19.049Z,1.10
2018-12-24T00:19:19.049Z,1.10
2018-12-24T00:20:19.036Z,1.10
2018-12-24T00:21:19.030Z,0.90
2018-12-24T00:22:19.059Z,1.10
2018-12-24T00:23:19.052Z,1.20
2018-12-24T00:24:19.019Z,1.20
2018-12-24T00:25:19.012Z,1.30
2018-12-24T00:26:19.009Z,1.10
2018-12-24T00:27:19.001Z,1.10
2018-12-24T00:28:19.025Z,1.20
2018-12-24T00:29:18.993Z,1.10
2018-12-24T00:30:18.984Z,0.80
2018-12-24T00:31:18.981Z,1.00
2018-12-24T00:32:19.002Z,1.00
2018-12-24T00:33:18.968Z,0.90
2018-12-24T00:34:18.965Z,1.00
2018-12-24T00:35:18.957Z,1.10
2018-12-24T00:36:18.948Z,1.00
2018-12-24T00:37:18.976Z,0.80
2018-12-24T00:38:18.939Z,0.90
2018-12-24T00:39:18.932Z,1.00
2018-12-24T00:40:18.929Z,0.90
2018-12-24T00:41:18.924Z,0.80
2018-12-24T00:42:18.949Z,0.60
2018-12-24T00:43:18.940Z,0.90
2018-12-24T00:44:18.909Z,0.70
2018-12-24T00:45:18.906Z,0.80
2018-12-24T00:46:18.898Z,0.70
2018-12-24T00:47:18.891Z,0.50
2018-12-24T00:48:18.917Z,0.70
2018-12-24T00:49:18.877Z,0.50
2018-12-24T00:50:18.880Z,0.60
2018-12-24T00:51:18.873Z,0.40
2018-12-24T00:52:18.865Z,0.60
2018-12-24T00:53:18.888Z,0.70
2018-12-24T00:54:18.853Z,0.50
2018-12-24T00:55:18.848Z,0.70
2018-12-24T00:56:20.022Z,0.60
2018-12-24T00:57:18.836Z,0.50
2018-12-24T00:58:18.863Z,0.70
2018-12-24T00:59:18.828Z,0.70
2018-12-24T01:00:18.821Z,0.70
2018-12-24T01:01:18.817Z,0.60
2018-12-24T01:02:18.804Z,0.50
2018-12-24T01:03:18.834Z,0.60
2018-12-24T01:04:18.803Z,0.50
2018-12-24T01:05:18.795Z,0.50
2018-12-24T01:06:18.789Z,0.40
2018-12-24T01:07:18.784Z,0.80
2018-12-24T01:08:18.807Z,0.70
2018-12-24T01:09:18.772Z,0.50
2018-12-24T01:10:18.769Z,0.40
2018-12-24T01:11:18.757Z,0.50
2018-12-24T01:12:24.586Z,0.50
2018-12-24T01:13:18.780Z,0.50
2018-12-24T01:14:18.744Z,0.40
2018-12-24T01:15:18.739Z,0.50
2018-12-24T01:16:18.733Z,0.50
2018-12-24T01:17:18.728Z,0.40
2018-12-24T01:18:18.752Z,0.80
2018-12-24T01:19:18.744Z,0.90
2018-12-24T01:20:18.714Z,1.00
2018-12-24T01:21:18.713Z,0.90
2018-12-24T01:22:18.701Z,0.80
2018-12-24T01:23:18.697Z,0.90
2018-12-24T01:24:18.717Z,1.10
2018-12-24T01:25:18.687Z,1.20
2018-12-24T01:26:18.677Z,1.20
2018-12-24T01:27:18.672Z,1.20
2018-12-24T01:28:18.665Z,1.10
2018-12-24T01:29:18.694Z,1.10
2018-12-24T01:30:18.656Z,1.00
2018-12-24T01:31:18.655Z,1.30
2018-12-24T01:32:18.650Z,1.20
2018-12-24T01:33:18.648Z,1.20
2018-12-24T01:34:18.668Z,1.10
2018-12-24T01:35:18.631Z,1.10
2018-12-24T01:36:18.624Z,1.40
2018-12-24T01:37:18.622Z,1.50
2018-12-24T01:38:18.608Z,1.10
2018-12-24T01:39:18.632Z,0.90
2018-12-24T01:40:18.606Z,1.10
2018-12-24T01:41:18.599Z,1.00
2018-12-24T01:42:18.593Z,1.10
2018-12-24T01:43:18.588Z,1.10
2018-12-24T01:44:18.611Z,1.30
2018-12-24T01:45:18.576Z,1.30
2018-12-24T01:46:18.573Z,1.10
2018-12-24T01:47:18.564Z,1.20
2018-12-24T01:48:18.560Z,1.10
2018-12-24T01:49:18.584Z,1.00
2018-12-24T01:50:18.548Z,1.30
2018-12-24T01:51:18.544Z,1.30
2018-12-24T01:52:18.537Z,1.10
2018-12-24T01:53:18.685Z,1.20
2018-12-24T01:54:18.556Z,1.30
2018-12-24T01:55:18.525Z,1.10
2018-12-24T01:56:18.516Z,1.30
2018-12-24T01:57:18.513Z,1.10
2018-12-24T01:58:18.505Z,0.90
2018-12-24T01:59:18.528Z,1.20
2018-12-24T02:00:18.525Z,1.10
2018-12-24T02:01:18.489Z,1.20
2018-12-24T02:02:18.485Z,1.30
2018-12-24T02:03:18.483Z,1.00
2018-12-24T02:04:18.472Z,1.20
2018-12-24T02:05:18.492Z,1.40
2018-12-24T02:06:18.460Z,1.30
2018-12-24T02:07:18.457Z,1.10
2018-12-24T02:08:18.447Z,1.00
2018-12-24T02:09:18.442Z,1.40
2018-12-24T02:10:18.469Z,1.30
2018-12-24T02:11:18.435Z,1.10
2018-12-24T02:12:18.431Z,1.20
2018-12-24T02:13:18.424Z,1.20
2018-12-24T02:14:18.417Z,1.10
2018-12-24T02:15:18.440Z,1.00
2018-12-24T02:16:18.405Z,1.10
2018-12-24T02:17:18.401Z,1.10
2018-12-24T02:18:18.396Z,1.10
2018-12-24T02:19:18.387Z,1.00
2018-12-24T02:20:18.409Z,0.90
2018-12-24T02:21:18.403Z,0.90
2018-12-24T02:22:18.371Z,0.90
2018-12-24T02:23:18.368Z,1.00
2018-12-24T02:24:18.359Z,1.20
2018-12-24T02:25:18.356Z,1.00
2018-12-24T02:26:18.379Z,0.80
2018-12-24T02:27:18.347Z,0.80
2018-12-24T02:28:18.339Z,1.00
2018-12-24T02:29:18.335Z,1.10
2018-12-24T02:30:18.327Z,0.90
2018-12-24T02:31:18.353Z,0.90
2018-12-24T02:32:18.315Z,0.70
2018-12-24T02:33:18.311Z,0.90
2018-12-24T02:34:18.418Z,0.80
2018-12-24T02:35:18.301Z,0.90
2018-12-24T02:36:18.322Z,0.80
2018-12-24T02:37:18.288Z,0.90
2018-12-24T02:38:18.285Z,0.70
2018-12-24T02:39:18.279Z,0.90
2018-12-24T02:40:18.278Z,0.90
2018-12-24T02:41:18.295Z,0.90
2018-12-24T02:42:18.263Z,0.80
2018-12-24T02:43:18.261Z,0.60
2018-12-24T02:44:18.254Z,0.80
2018-12-24T02:45:18.243Z,0.70
2018-12-24T02:46:18.269Z,0.70
2018-12-24T02:47:18.362Z,0.60
2018-12-24T02:48:18.227Z,0.80
2018-12-24T02:49:18.221Z,0.60
2018-12-24T02:50:18.218Z,0.70
2018-12-24T02:51:18.211Z,0.60
2018-12-24T02:52:18.233Z,0.70
2018-12-24T02:53:18.200Z,0.60
2018-12-24T02:54:18.193Z,0.60
2018-12-24T02:55:18.188Z,0.70
2018-12-24T02:56:18.211Z,0.70
2018-12-24T02:57:18.177Z,0.60
2018-12-24T02:58:18.168Z,0.70
2018-12-24T02:59:18.164Z,0.50
2018-12-24T03:00:18.159Z,0.50
2018-12-24T03:01:18.183Z,0.40
2018-12-24T03:02:18.148Z,0.40
2018-12-24T03:03:18.143Z,0.70
2018-12-24T03:04:18.138Z,0.60
2018-12-24T03:05:18.131Z,0.60
2018-12-24T03:06:18.152Z,0.80
2018-12-24T03:07:18.119Z,0.70
2018-12-24T03:08:18.115Z,0.60
2018-12-24T03:09:18.108Z,0.60
2018-12-24T03:10:18.105Z,0.60
2018-12-24T03:11:18.123Z,0.60
2018-12-24T03:12:18.092Z,0.50
2018-12-24T03:13:18.087Z,0.40
2018-12-24T03:14:18.081Z,0.30
2018-12-24T03:15:18.076Z,0.60
2018-12-24T03:16:18.097Z,0.30
2018-12-24T03:17:18.066Z,0.50
2018-12-24T03:18:18.062Z,0.50
2018-12-24T03:19:18.052Z,0.40
2018-12-24T03:20:18.043Z,0.40
2018-12-24T03:21:18.067Z,0.20
2018-12-24T03:22:18.064Z,0.60
2018-12-24T03:23:18.028Z,0.50
2018-12-24T03:24:18.024Z,0.70
2018-12-24T03:25:18.016Z,0.50
2018-12-24T03:26:18.013Z,0.80
2018-12-24T03:27:18.037Z,0.70
2018-12-24T03:28:17.997Z,0.60
2018-12-24T03:29:17.994Z,0.70
2018-12-24T03:30:17.985Z,0.70
2018-12-24T03:31:17.981Z,0.60
2018-12-24T03:32:18.005Z,0.50
2018-12-24T03:33:17.971Z,0.90
2018-12-24T03:34:17.961Z,0.90
2018-12-24T03:35:17.956Z,0.70
2018-12-24T03:36:17.951Z,0.50
2018-12-24T03:37:17.980Z,0.30
2018-12-24T03:38:17.936Z,0.50
2018-12-24T03:39:17.937Z,0.40
2018-12-24T03:40:17.927Z,0.50
2018-12-24T03:41:17.952Z,0.80
2018-12-24T03:42:17.915Z,0.70
2018-12-24T03:43:17.940Z,0.40
2018-12-24T03:44:17.901Z,0.40
2018-12-24T03:45:17.911Z,0.40
2018-12-24T03:46:17.890Z,0.80
2018-12-24T03:47:17.887Z,0.50
2018-12-24T03:48:17.911Z,0.70
2018-12-24T03:49:17.873Z,0.60
2018-12-24T03:50:17.867Z,1.00
2018-12-24T03:51:17.863Z,0.50
2018-12-24T03:52:17.862Z,0.40
2018-12-24T03:53:17.875Z,0.70
2018-12-24T03:54:17.871Z,0.50
2018-12-24T03:55:17.835Z,0.50
2018-12-24T03:56:17.833Z,0.90
2018-12-24T03:57:17.825Z,0.80
2018-12-24T03:58:17.822Z,0.40
2018-12-24T03:59:17.838Z,0.50
2018-12-24T04:00:17.806Z,0.60
2018-12-24T04:01:17.800Z,0.50
2018-12-24T04:02:17.791Z,0.60
2018-12-24T04:03:17.811Z,0.50
2018-12-24T04:04:17.781Z,0.40
2018-12-24T04:05:17.775Z,0.60
2018-12-24T04:06:17.768Z,0.50
2018-12-24T04:07:17.763Z,0.50
2018-12-24T04:08:17.785Z,0.30
2018-12-24T04:09:17.748Z,0.50
2018-12-24T04:10:17.744Z,0.70
2018-12-24T04:11:17.739Z,0.60
2018-12-24T04:12:17.741Z,0.50
2018-12-24T04:13:22.309Z,0.70
2018-12-24T04:14:17.718Z,0.50
2018-12-24T04:15:17.716Z,0.30
2018-12-24T04:16:17.707Z,0.30
2018-12-24T04:17:17.699Z,0.20
2018-12-24T04:18:17.725Z,0.40
2018-12-24T04:19:17.684Z,0.40
2018-12-24T04:20:17.685Z,0.50
2018-12-24T04:21:17.673Z,0.40
2018-12-24T04:22:17.674Z,0.50
2018-12-24T04:23:17.692Z,0.60
2018-12-24T04:24:17.693Z,0.60
2018-12-24T04:25:17.656Z,0.50
2018-12-24T04:26:17.649Z,0.30
2018-12-24T04:27:17.638Z,0.40
2018-12-24T04:28:17.632Z,0.50
2018-12-24T04:29:17.654Z,0.30
2018-12-24T04:30:17.626Z,0.30
2018-12-24T04:31:17.608Z,0.60
2018-12-24T04:32:17.616Z,0.30
2018-12-24T04:33:17.674Z,0.50
2018-12-24T04:34:17.622Z,0.60
2018-12-24T04:35:17.615Z,0.60
2018-12-24T04:36:17.578Z,0.30
2018-12-24T04:37:17.575Z,0.30
2018-12-24T04:38:17.570Z,0.10
2018-12-24T04:39:17.562Z,0.20
2018-12-24T04:40:17.586Z,0.40
2018-12-24T04:41:17.542Z,0.30
2018-12-24T04:42:17.546Z,0.50
2018-12-24T04:43:17.534Z,0.50
2018-12-24T04:44:17.539Z,0.50
2018-12-24T04:45:17.555Z,0.60
2018-12-24T04:46:17.521Z,0.50
2018-12-24T04:47:17.510Z,0.50
2018-12-24T04:48:17.568Z,0.80
2018-12-24T04:49:17.528Z,0.80
2018-12-24T04:50:17.490Z,0.50
2018-12-24T04:51:17.515Z,0.80
2018-12-24T04:52:17.485Z,0.80
2018-12-24T04:53:17.468Z,0.80
2018-12-24T04:54:17.495Z,0.80
2018-12-24T04:55:17.455Z,1.00
2018-12-24T04:56:17.450Z,0.50
2018-12-24T04:57:17.476Z,0.80
2018-12-24T04:58:17.445Z,0.80
2018-12-24T04:59:17.435Z,0.80
2018-12-24T05:00:17.427Z,0.60
2018-12-24T05:01:17.422Z,0.30
2018-12-24T05:02:17.442Z,0.60
2018-12-24T05:03:17.410Z,0.30
2018-12-24T05:04:17.405Z,0.30
2018-12-24T05:05:17.395Z,0.60
2018-12-24T05:06:17.398Z,0.40
2018-12-24T05:07:17.409Z,0.80
2018-12-24T05:08:17.381Z,0.60
2018-12-24T05:09:17.371Z,0.50
2018-12-24T05:10:17.367Z,0.80
2018-12-24T05:11:17.354Z,1.00
2018-12-24T05:12:17.380Z,0.40
2018-12-24T05:13:17.350Z,0.90
2018-12-24T05:14:17.337Z,0.60
2018-12-24T05:15:17.361Z,0.30
2018-12-24T05:16:17.326Z,1.00
2018-12-24T05:17:17.321Z,0.80
2018-12-24T05:18:17.342Z,0.90
2018-12-24T05:19:17.304Z,0.70
2018-12-24T05:20:17.302Z,0.50
2018-12-24T05:21:17.293Z,0.60
2018-12-24T05:22:17.285Z,0.90
2018-12-24T05:23:17.311Z,0.90
2018-12-24T05:24:17.276Z,0.80
2018-12-24T05:25:17.295Z,0.80
2018-12-24T05:26:17.264Z,1.10
2018-12-24T05:27:17.258Z,1.20
2018-12-24T05:28:17.251Z,0.90
2018-12-24T05:29:17.272Z,0.70
2018-12-24T05:30:17.239Z,1.10
2018-12-24T05:31:17.229Z,1.40
2018-12-24T05:32:17.227Z,1.00
2018-12-24T05:33:17.247Z,0.90
2018-12-24T05:34:17.214Z,1.60
2018-12-24T05:35:17.205Z,1.50
2018-12-24T05:36:17.202Z,1.20
2018-12-24T05:37:17.195Z,1.30
2018-12-24T05:38:17.214Z,1.30
2018-12-24T05:39:17.184Z,1.20
2018-12-24T05:40:17.201Z,1.20
2018-12-24T05:41:17.171Z,1.30
2018-12-24T05:42:17.162Z,1.50
2018-12-24T05:43:17.159Z,1.60
2018-12-24T05:44:17.178Z,2.20
2018-12-24T05:45:17.148Z,1.50
2018-12-24T05:46:17.138Z,1.90
2018-12-24T05:47:17.134Z,1.60
2018-12-24T05:48:17.126Z,1.70
2018-12-24T05:49:17.149Z,1.20
2018-12-24T05:50:17.130Z,2.20
2018-12-24T05:51:17.110Z,2.00
2018-12-24T05:52:17.106Z,2.30
2018-12-24T05:53:17.098Z,2.20
2018-12-24T05:54:17.121Z,2.10
2018-12-24T05:55:17.120Z,2.10
2018-12-24T05:56:17.082Z,1.70
2018-12-24T05:57:17.073Z,1.50
2018-12-24T05:58:17.067Z,2.30
2018-12-24T05:59:17.066Z,2.20
2018-12-24T06:00:17.082Z,2.00
2018-12-24T06:01:17.054Z,2.30
2018-12-24T06:02:17.831Z,1.90
2018-12-24T06:03:17.039Z,1.90
2018-12-24T06:04:17.031Z,2.10
2018-12-24T06:05:17.053Z,2.30
2018-12-24T06:06:17.023Z,2.20
2018-12-24T06:07:17.018Z,1.60
2018-12-24T06:08:17.009Z,1.50
2018-12-24T06:09:17.006Z,1.70
2018-12-24T06:10:17.033Z,1.60
2018-12-24T06:11:16.993Z,2.00
2018-12-24T06:12:16.985Z,0.90
2018-12-24T06:13:16.978Z,0.60
2018-12-24T06:14:16.977Z,1.40
2018-12-24T06:15:17.003Z,1.60
2018-12-24T06:16:16.969Z,2.10
2018-12-24T06:17:16.957Z,2.10
2018-12-24T06:18:16.956Z,2.10
2018-12-24T06:19:17.052Z,1.80
2018-12-24T06:20:17.135Z,1.90
2018-12-24T06:21:16.937Z,2.10
2018-12-24T06:22:16.934Z,1.70
2018-12-24T06:23:16.929Z,1.90
2018-12-24T06:24:16.922Z,2.20
2018-12-24T06:25:16.914Z,2.00
2018-12-24T06:26:16.934Z,2.00
2018-12-24T06:27:16.906Z,1.90
2018-12-24T06:28:16.900Z,2.00
2018-12-24T06:29:16.903Z,1.80
2018-12-24T06:30:16.889Z,2.00
2018-12-24T06:31:16.915Z,1.80
2018-12-24T06:32:16.880Z,1.80
2018-12-24T06:33:16.880Z,1.90
2018-12-24T06:34:16.865Z,1.70
2018-12-24T06:35:16.861Z,1.80
2018-12-24T06:36:16.882Z,1.90
2018-12-24T06:37:16.877Z,1.90
2018-12-24T06:38:16.847Z,1.70
2018-12-24T06:39:16.841Z,1.90
2018-12-24T06:40:16.833Z,1.80
2018-12-24T06:41:16.825Z,2.20
2018-12-24T06:42:18.168Z,2.00
2018-12-24T06:43:16.816Z,2.10
2018-12-24T06:44:16.809Z,2.00
2018-12-24T06:45:16.805Z,2.20
2018-12-24T06:46:16.804Z,2.40
2018-12-24T06:47:16.821Z,2.30
2018-12-24T06:48:16.789Z,2.60
2018-12-24T06:49:16.785Z,2.30
2018-12-24T06:50:16.777Z,2.40
2018-12-24T06:51:16.771Z,2.60
2018-12-24T06:52:16.794Z,2.70
2018-12-24T06:53:16.763Z,2.50
2018-12-24T06:54:16.763Z,2.30
2018-12-24T06:55:16.753Z,2.60
2018-12-24T06:56:16.747Z,2.30
2018-12-24T06:57:16.765Z,2.30
2018-12-24T06:58:16.745Z,2.50
2018-12-24T06:59:16.731Z,2.60
2018-12-24T07:00:16.728Z,2.50
2018-12-24T07:01:16.719Z,2.20
2018-12-24T07:02:16.745Z,1.90
2018-12-24T07:03:16.710Z,2.10
2018-12-24T07:04:16.700Z,2.30
2018-12-24T07:05:16.697Z,2.10
2018-12-24T07:06:16.692Z,2.00
2018-12-24T07:07:16.716Z,2.30
2018-12-24T07:08:16.681Z,2.40
2018-12-24T07:09:16.676Z,2.10
2018-12-24T07:10:16.674Z,2.20
2018-12-24T07:11:16.700Z,2.10
2018-12-24T07:12:16.657Z,2.00
2018-12-24T07:13:16.680Z,2.00
2018-12-24T07:14:16.649Z,1.90
2018-12-24T07:15:16.645Z,1.90
2018-12-24T07:16:16.668Z,1.80
2018-12-24T07:17:16.661Z,2.10
2018-12-24T07:18:16.626Z,1.90
2018-12-24T07:19:16.622Z,2.40
2018-12-24T07:20:16.613Z,2.10
2018-12-24T07:21:16.639Z,2.10
2018-12-24T07:22:16.605Z,2.50
2018-12-24T07:23:16.629Z,2.10
2018-12-24T07:24:16.588Z,2.30
2018-12-24T07:25:16.591Z,2.80
2018-12-24T07:26:16.612Z,2.60
2018-12-24T07:27:16.581Z,2.60
2018-12-24T07:28:16.573Z,2.40
2018-12-24T07:29:16.594Z,2.40
2018-12-24T07:30:16.561Z,2.30
2018-12-24T07:31:17.846Z,2.00
2018-12-24T07:32:16.553Z,2.50
2018-12-24T07:33:16.571Z,2.50
2018-12-24T07:34:16.546Z,2.30
2018-12-24T07:35:16.531Z,2.50
2018-12-24T07:36:16.529Z,2.50
2018-12-24T07:37:16.524Z,2.30
2018-12-24T07:38:16.545Z,2.10
2018-12-24T07:39:16.515Z,2.10
2018-12-24T07:40:16.511Z,2.10
2018-12-24T07:41:16.501Z,2.10
2018-12-24T07:42:16.524Z,2.00
2018-12-24T07:43:16.492Z,2.00
2018-12-24T07:44:23.926Z,2.10
2018-12-24T07:45:16.481Z,2.30
2018-12-24T07:46:16.472Z,2.00
2018-12-24T07:47:16.468Z,2.10
2018-12-24T07:48:16.492Z,2.30
2018-12-24T07:49:16.458Z,2.10
2018-12-24T07:50:16.451Z,2.00
2018-12-24T07:51:16.449Z,2.10
2018-12-24T07:52:16.467Z,2.40
2018-12-24T07:53:16.438Z,2.30
2018-12-24T07:54:16.455Z,2.80
2018-12-24T07:55:16.424Z,2.50
2018-12-24T07:56:16.416Z,2.40
2018-12-24T07:57:16.430Z,2.50
2018-12-24T07:58:16.405Z,2.70
2018-12-24T07:59:16.427Z,2.70
2018-12-24T08:00:16.395Z,3.00
2018-12-24T08:01:16.387Z,3.20
2018-12-24T08:02:16.380Z,3.20
2018-12-24T08:03:16.376Z,3.00
2018-12-24T08:04:16.403Z,2.70
2018-12-24T08:05:16.375Z,2.40
2018-12-24T08:06:16.365Z,2.70
2018-12-24T08:07:16.360Z,3.30
2018-12-24T08:08:16.380Z,3.10
2018-12-24T08:09:16.366Z,3.20
2018-12-24T08:10:16.340Z,3.10
2018-12-24T08:11:16.334Z,3.10
2018-12-24T08:12:16.359Z,3.50
2018-12-24T08:13:16.325Z,3.20
2018-12-24T08:14:16.345Z,3.50
2018-12-24T08:15:16.310Z,3.40
2018-12-24T08:16:16.305Z,3.60
2018-12-24T08:17:16.303Z,3.40
2018-12-24T08:18:16.291Z,3.80
2018-12-24T08:19:16.410Z,4.10
2018-12-24T08:20:16.279Z,3.80
2018-12-24T08:21:16.284Z,3.90
2018-12-24T08:22:16.275Z,3.50
2018-12-24T08:23:16.269Z,3.80
2018-12-24T08:24:16.292Z,4.10
2018-12-24T08:25:16.258Z,3.80
2018-12-24T08:26:16.252Z,4.00
2018-12-24T08:27:16.340Z,4.40
2018-12-24T08:28:16.242Z,4.40
2018-12-24T08:29:16.259Z,4.20
2018-12-24T08:30:16.231Z,4.20
2018-12-24T08:31:16.226Z,4.20
2018-12-24T08:32:16.253Z,4.40
2018-12-24T08:33:18.034Z,4.70
2018-12-24T08:34:16.830Z,4.00
2018-12-24T08:35:16.230Z,4.50
2018-12-24T08:36:16.198Z,4.50
2018-12-24T08:37:16.191Z,4.30
2018-12-24T08:38:16.186Z,4.30
2018-12-24T08:39:16.181Z,4.60
2018-12-24T08:40:16.207Z,4.30
2018-12-24T08:41:16.170Z,4.50
2018-12-24T08:42:16.210Z,4.70
2018-12-24T08:43:16.166Z,4.90
2018-12-24T08:44:16.154Z,4.40
2018-12-24T08:45:16.153Z,4.60
2018-12-24T08:46:16.170Z,4.20
2018-12-24T08:47:16.140Z,4.30
2018-12-24T08:48:16.130Z,4.40
2018-12-24T08:49:16.130Z,4.70
2018-12-24T08:50:16.132Z,3.70
2018-12-24T08:51:16.143Z,4.50
2018-12-24T08:52:16.110Z,4.30
2018-12-24T08:53:16.106Z,4.50
2018-12-24T08:54:16.102Z,4.60
2018-12-24T08:55:16.091Z,4.20
2018-12-24T08:56:16.121Z,4.40
2018-12-24T08:57:16.080Z,4.40
2018-12-24T08:58:16.077Z,4.80
2018-12-24T08:59:16.075Z,4.20
2018-12-24T09:00:16.069Z,4.70
2018-12-24T09:01:16.089Z,4.70
2018-12-24T09:02:16.057Z,4.90
2018-12-24T09:03:16.053Z,4.60
2018-12-24T09:04:16.048Z,4.00
2018-12-24T09:05:16.041Z,3.30
2018-12-24T09:06:16.070Z,3.80
2018-12-24T09:07:16.032Z,3.80
2018-12-24T09:08:16.053Z,4.30
2018-12-24T09:09:16.016Z,4.70
2018-12-24T09:10:16.013Z,4.80
2018-12-24T09:11:16.022Z,4.80
2018-12-24T09:12:16.028Z,5.10
2018-12-24T09:13:16.025Z,4.50
2018-12-24T09:14:15.989Z,4.30
2018-12-24T09:15:15.985Z,4.40
2018-12-24T09:16:15.977Z,4.40
2018-12-24T09:17:15.973Z,4.00
2018-12-24T09:18:15.997Z,3.90
2018-12-24T09:19:15.961Z,3.80
2018-12-24T09:20:15.957Z,3.30
2018-12-24T09:21:15.950Z,3.50
2018-12-24T09:22:15.949Z,3.10
2018-12-24T09:23:15.965Z,3.40
2018-12-24T09:24:15.937Z,3.20
2018-12-24T09:25:15.925Z,3.40
2018-12-24T09:26:15.928Z,3.70
2018-12-24T09:27:15.911Z,4.00
2018-12-24T09:28:16.042Z,3.30
2018-12-24T09:29:15.909Z,3.70
2018-12-24T09:30:15.905Z,3.40
2018-12-24T09:31:15.897Z,3.50
2018-12-24T09:32:15.898Z,3.40
2018-12-24T09:33:15.914Z,3.80
2018-12-24T09:34:15.880Z,3.50
2018-12-24T09:35:15.878Z,4.00
2018-12-24T09:36:15.871Z,3.70
2018-12-24T09:37:15.866Z,3.80
2018-12-24T09:38:15.885Z,3.20
2018-12-24T09:39:15.853Z,3.60
2018-12-24T09:40:15.849Z,3.30
2018-12-24T09:41:15.854Z,3.40
2018-12-24T09:42:15.837Z,2.90
2018-12-24T09:43:15.862Z,3.20
2018-12-24T09:44:15.833Z,2.90
2018-12-24T09:45:15.820Z,3.20
2018-12-24T09:46:15.817Z,3.00
2018-12-24T09:47:15.807Z,3.40
2018-12-24T09:48:15.832Z,3.30
2018-12-24T09:49:15.800Z,3.00
2018-12-24T09:50:15.795Z,3.00
2018-12-24T09:51:15.787Z,2.90
2018-12-24T09:52:15.782Z,3.10
2018-12-24T09:53:15.801Z,3.10
2018-12-24T09:54:15.775Z,3.50
2018-12-24T09:55:15.762Z,2.70
2018-12-24T09:56:15.762Z,2.20
2018-12-24T09:57:15.752Z,2.80
2018-12-24T09:58:15.777Z,3.00
2018-12-24T09:59:15.741Z,3.30
2018-12-24T10:00:15.737Z,3.00
2018-12-24T10:01:15.728Z,3.10
2018-12-24T10:02:16.413Z,3.30
2018-12-24T10:03:15.753Z,3.30
2018-12-24T10:04:15.712Z,3.90
2018-12-24T10:05:15.704Z,3.10
2018-12-24T10:06:15.700Z,3.20
2018-12-24T10:07:15.702Z,3.50
2018-12-24T10:08:15.718Z,3.30
2018-12-24T10:09:15.714Z,3.70
2018-12-24T10:10:15.678Z,3.90
2018-12-24T10:11:15.677Z,3.80
2018-12-24T10:12:15.661Z,4.00
2018-12-24T10:13:15.764Z,4.30
2018-12-24T10:14:15.685Z,4.20
2018-12-24T10:15:15.650Z,4.20
2018-12-24T10:16:15.644Z,4.00
2018-12-24T10:17:15.640Z,4.50
2018-12-24T10:18:15.634Z,3.90
2018-12-24T10:19:15.654Z,3.70
2018-12-24T10:20:15.617Z,3.90
2018-12-24T10:21:15.618Z,4.20
2018-12-24T10:22:15.616Z,3.90
2018-12-24T10:23:15.612Z,4.10
2018-12-24T10:24:15.627Z,4.10
2018-12-24T10:25:15.615Z,3.40
2018-12-24T10:26:15.588Z,3.80
2018-12-24T10:27:15.587Z,4.10
2018-12-24T10:28:15.572Z,3.70
2018-12-24T10:29:15.588Z,4.10
2018-12-24T10:30:15.594Z,4.00
2018-12-24T10:31:15.560Z,4.40
2018-12-24T10:32:15.555Z,4.10
2018-12-24T10:33:15.547Z,4.40
2018-12-24T10:34:15.572Z,4.30
2018-12-24T10:35:15.538Z,4.10
2018-12-24T10:36:15.530Z,4.20
2018-12-24T10:37:15.536Z,4.00
2018-12-24T10:38:15.519Z,4.00
2018-12-24T10:39:15.547Z,3.90
2018-12-24T10:40:15.510Z,3.90
2018-12-24T10:41:15.514Z,3.50
2018-12-24T10:42:15.503Z,4.30
2018-12-24T10:43:15.502Z,4.20
2018-12-24T10:44:15.518Z,4.20
2018-12-24T10:45:16.748Z,3.90
2018-12-24T10:46:15.478Z,3.80
2018-12-24T10:47:15.474Z,3.80
2018-12-24T10:48:15.470Z,3.80
2018-12-24T10:49:15.494Z,3.60
2018-12-24T10:50:15.515Z,3.50
2018-12-24T10:51:15.455Z,3.90
2018-12-24T10:52:15.452Z,3.50
2018-12-24T10:53:15.451Z,3.70
2018-12-24T10:54:15.466Z,3.80
2018-12-24T10:55:15.433Z,4.00
2018-12-24T10:56:15.429Z,4.00
2018-12-24T10:57:15.426Z,3.50
2018-12-24T10:58:15.418Z,3.50
2018-12-24T10:59:15.444Z,3.70
2018-12-24T11:00:15.410Z,3.70
2018-12-24T11:01:15.526Z,3.30
2018-12-24T11:02:15.394Z,3.70
2018-12-24T11:03:15.393Z,3.60
2018-12-24T11:04:15.417Z,3.10
2018-12-24T11:05:15.412Z,3.10
2018-12-24T11:06:15.381Z,2.90
2018-12-24T11:07:15.378Z,2.70
2018-12-24T11:08:15.375Z,2.80
2018-12-24T11:09:15.366Z,2.90
2018-12-24T11:10:15.394Z,2.70
2018-12-24T11:11:15.362Z,2.90
2018-12-24T11:12:15.354Z,2.80
2018-12-24T11:13:15.354Z,3.40
2018-12-24T11:14:15.338Z,3.10
2018-12-24T11:15:15.371Z,3.40
2018-12-24T11:16:15.334Z,3.00
2018-12-24T11:17:15.330Z,3.00
2018-12-24T11:18:15.335Z,2.60
2018-12-24T11:19:15.330Z,2.60
2018-12-24T11:20:15.349Z,2.50
2018-12-24T11:21:15.341Z,2.40
2018-12-24T11:22:15.311Z,2.30
2018-12-24T11:23:15.303Z,2.60
2018-12-24T11:24:15.332Z,2.50
2018-12-24T11:25:15.306Z,2.90
2018-12-24T11:26:15.324Z,3.20
2018-12-24T11:27:15.293Z,2.70
2018-12-24T11:28:15.297Z,2.00
2018-12-24T11:29:15.289Z,1.70
2018-12-24T11:30:15.292Z,1.40
2018-12-24T11:31:15.320Z,1.30
2018-12-24T11:32:15.296Z,1.50
2018-12-24T11:33:15.297Z,1.40
2018-12-24T11:34:15.300Z,1.30
2018-12-24T11:35:15.327Z,1.20
2018-12-24T11:36:15.306Z,1.40
2018-12-24T11:37:15.312Z,1.50
2018-12-24T11:38:15.311Z,1.50
2018-12-24T11:39:15.307Z,1.50
2018-12-24T11:40:15.336Z,1.50
2018-12-24T11:41:15.334Z,1.40
2018-12-24T11:42:15.308Z,1.50
2018-12-24T11:43:15.314Z,1.60
2018-12-24T11:44:15.321Z,1.60
2018-12-24T11:45:15.311Z,1.30
2018-12-24T11:46:15.336Z,1.40
2018-12-24T11:47:15.307Z,1.50
2018-12-24T11:48:15.319Z,1.50
2018-12-24T11:49:15.312Z,1.50
2018-12-24T11:50:15.303Z,1.80
2018-12-24T11:51:15.339Z,1.90
2018-12-24T11:52:15.302Z,1.50
2018-12-24T11:53:15.304Z,1.80
2018-12-24T11:54:16.999Z,1.90
2018-12-24T11:55:15.292Z,1.80
2018-12-24T11:56:15.320Z,1.90
2018-12-24T11:57:15.291Z,1.80
2018-12-24T11:58:16.774Z,1.80
2018-12-24T11:59:15.285Z,1.70
2018-12-24T12:00:15.283Z,1.70
2018-12-24T12:01:15.311Z,1.70
2018-12-24T12:02:15.275Z,1.60
2018-12-24T12:03:15.384Z,1.50
2018-12-24T12:04:15.276Z,1.50
2018-12-24T12:05:15.273Z,1.60
2018-12-24T12:06:19.706Z,1.70
2018-12-24T12:07:15.259Z,1.60
2018-12-24T12:08:15.254Z,1.40
2018-12-24T12:09:15.251Z,1.70
2018-12-24T12:10:15.255Z,1.50
2018-12-24T12:11:15.278Z,1.40
2018-12-24T12:12:15.244Z,1.60
2018-12-24T12:13:15.242Z,1.70
2018-12-24T12:14:15.239Z,1.50
2018-12-24T12:15:15.232Z,1.50
2018-12-24T12:16:15.257Z,1.60
2018-12-24T12:17:15.250Z,1.50
2018-12-24T12:18:15.217Z,1.50
2018-12-24T12:19:15.218Z,1.80
2018-12-24T12:20:15.210Z,1.20
2018-12-24T12:21:15.206Z,1.40
2018-12-24T12:22:15.234Z,1.50
2018-12-24T12:23:15.198Z,1.50
2018-12-24T12:24:15.194Z,1.50
2018-12-24T12:25:15.190Z,1.50
2018-12-24T12:26:15.182Z,1.40
2018-12-24T12:27:15.213Z,1.20
2018-12-24T12:28:17.152Z,1.70
2018-12-24T12:29:15.173Z,1.30
2018-12-24T12:30:15.169Z,1.60
2018-12-24T12:31:15.193Z,1.50
2018-12-24T12:32:15.166Z,1.40
2018-12-24T12:33:15.157Z,1.40
2018-12-24T12:34:15.153Z,1.40
2018-12-24T12:35:15.153Z,1.30
2018-12-24T12:36:15.174Z,1.40
2018-12-24T12:37:15.141Z,1.50
2018-12-24T12:38:15.137Z,1.70
2018-12-24T12:39:15.136Z,1.40
2018-12-24T12:40:15.130Z,1.20
2018-12-24T12:41:15.153Z,1.40
2018-12-24T12:42:15.146Z,1.30
2018-12-24T12:43:15.489Z,1.20
2018-12-24T12:44:15.111Z,1.50
2018-12-24T12:45:15.105Z,1.60
2018-12-24T12:46:15.101Z,1.70
2018-12-24T12:47:15.125Z,1.60
2018-12-24T12:48:15.093Z,1.50
2018-12-24T12:49:15.084Z,1.70
2018-12-24T12:50:15.078Z,1.50
2018-12-24T12:51:15.086Z,1.20
2018-12-24T12:52:15.101Z,1.60
2018-12-24T12:53:15.070Z,1.60
2018-12-24T12:54:15.065Z,1.40
2018-12-24T12:55:15.061Z,1.60
2018-12-24T12:56:15.052Z,1.30
2018-12-24T12:57:15.080Z,1.60
2018-12-24T12:58:15.052Z,1.70
2018-12-24T12:59:15.037Z,1.70
2018-12-24T13:00:15.036Z,1.60
2018-12-24T13:01:15.032Z,1.40
2018-12-24T13:02:15.077Z,1.20
2018-12-24T13:03:15.024Z,1.30
2018-12-24T13:04:15.013Z,1.40
2018-12-24T13:05:15.012Z,1.30
2018-12-24T13:06:15.008Z,1.40
2018-12-24T13:07:15.030Z,1.40
2018-12-24T13:08:15.028Z,1.50
2018-12-24T13:09:14.993Z,1.20
2018-12-24T13:10:14.988Z,1.80
2018-12-24T13:11:14.979Z,1.50
2018-12-24T13:12:14.977Z,1.50
2018-12-24T13:13:15.004Z,1.70
2018-12-24T13:14:14.968Z,1.60
2018-12-24T13:15:14.964Z,1.60
2018-12-24T13:16:14.960Z,1.90
2018-12-24T13:17:14.952Z,1.40
2018-12-24T13:18:14.976Z,1.40